Time;durP1;ratioP1;P1;durP2;ratioP2;P2;SDS_P1;SDS_P2;PMS_P1;PMS_P2;Temp;Humidity;BMP_temperature;BMP_pressure;BME280_temperature;BME280_humidity;BME280_pressure;Samples;Min_cycle;Max_cycle;Signal;HPM_P1;HPM_P2
2022/06/29 00:00:18;;;;;;;3.63;1.87;;;;;;;-147.27;100.00;65176.34;4979544;28;20043;-52
2022/06/29 00:02:44;;;;;;;10.90;2.90;;;;;;;-147.27;100.00;65176.34;4982362;28;20031;-47
2022/06/29 00:05:14;;;;;;;5.07;2.00;;;;;;;-147.27;100.00;65176.34;4979413;28;20035;-47
2022/06/29 00:07:42;;;;;;;7.33;1.90;;;;;;;-147.27;100.00;65176.34;4978876;28;20071;-49
2022/06/29 00:10:09;;;;;;;7.60;2.13;;;;;;;-147.27;100.00;65176.34;4977893;28;20065;-47
2022/06/29 00:12:35;;;;;;;6.40;2.03;;;;;;;-147.27;100.00;65176.34;4980202;28;20027;-51
2022/06/29 00:15:02;;;;;;;5.18;2.17;;;;;;;-147.27;100.00;65176.34;4979279;28;20054;-49
2022/06/29 00:17:32;;;;;;;5.03;2.23;;;;;;;-147.27;100.00;65176.34;4981506;28;20094;-48
2022/06/29 00:19:59;;;;;;;7.10;1.90;;;;;;;-147.27;100.00;65176.34;4979104;28;21004;-47
2022/06/29 00:22:25;;;;;;;10.43;2.50;;;;;;;-147.27;100.00;65176.34;4977831;28;20059;-51
2022/06/29 00:24:51;;;;;;;5.07;2.20;;;;;;;-147.27;100.00;65176.34;4982415;28;20031;-48
2022/06/29 00:27:17;;;;;;;;;;;;;;;-147.27;100.00;65176.34;4977576;28;20069;-48
2022/06/29 00:29:43;;;;;;;4.90;2.10;;;;;;;-147.27;100.00;65176.34;4977834;28;19914;-52
2022/06/29 00:32:09;;;;;;;5.75;2.30;;;;;;;-147.27;100.00;65176.34;4978399;28;20095;-50
2022/06/29 00:34:35;;;;;;;5.65;2.60;;;;;;;-147.27;100.00;65176.34;4977665;28;20047;-48
2022/06/29 00:37:01;;;;;;;4.97;2.80;;;;;;;-147.27;100.00;65176.34;4976820;28;20035;-53
2022/06/29 00:39:26;;;;;;;8.20;2.75;;;;;;;-147.27;100.00;65176.34;4973478;28;20057;-48
2022/06/29 00:41:52;;;;;;;5.80;2.35;;;;;;;-147.27;100.00;65176.34;4976432;28;20036;-50
2022/06/29 00:44:18;;;;;;;5.88;2.55;;;;;;;-147.27;100.00;65176.34;4977011;28;20047;-49
2022/06/29 00:47:05;;;;;;;6.53;2.57;;;;;;;-147.27;100.00;65176.34;4960848;28;20044;-49
2022/06/29 00:49:31;;;;;;;10.55;3.25;;;;;;;-147.27;100.00;65176.34;4976937;28;20063;-48
2022/06/29 00:52:02;;;;;;;17.53;9.23;;;;;;;-147.27;100.00;65176.34;4978530;28;20039;-49
2022/06/29 00:54:39;;;;;;;8.73;2.57;;;;;;;-147.27;100.00;65176.34;4974146;28;20050;-49
2022/06/29 00:57:13;;;;;;;6.85;2.45;;;;;;;-147.27;100.00;65176.34;4981078;28;20060;-49
2022/06/29 00:59:47;;;;;;;6.57;2.50;;;;;;;-147.27;100.00;65176.34;4976955;28;20038;-49
2022/06/29 01:02:15;;;;;;;7.27;2.43;;;;;;;-147.27;100.00;65176.34;4977342;28;20050;-50
2022/06/29 01:04:42;;;;;;;6.63;2.37;;;;;;;-147.27;100.00;65176.34;4974430;28;20039;-49
2022/06/29 01:07:08;;;;;;;4.67;2.97;;;;;;;-147.27;100.00;65176.34;4975594;28;20035;-48
2022/06/29 01:09:34;;;;;;;5.72;2.70;;;;;;;-147.27;100.00;65176.34;4976545;28;20058;-48
2022/06/29 01:11:59;;;;;;;;;;;;;;;-147.27;100.00;65176.34;4976016;28;20069;-50
2022/06/29 01:14:25;;;;;;;6.67;2.93;;;;;;;-147.27;100.00;65176.34;4979184;28;19914;-48
2022/06/29 01:16:51;;;;;;;;;;;;;;;-147.27;100.00;65176.34;4978295;28;20039;-50
2022/06/29 01:19:17;;;;;;;4.77;3.00;;;;;;;-147.27;100.00;65176.34;4979871;28;20012;-49
2022/06/29 01:21:45;;;;;;;7.10;3.05;;;;;;;-147.27;100.00;65176.34;4981073;28;20038;-51
2022/06/29 01:24:11;;;;;;;5.50;3.37;;;;;;;-147.27;100.00;65176.34;4978752;28;20038;-47
2022/06/29 01:26:37;;;;;;;5.63;2.67;;;;;;;-147.27;100.00;65176.34;4976082;28;20050;-49
2022/06/29 01:29:02;;;;;;;7.23;2.87;;;;;;;-147.27;100.00;65176.34;4980939;28;20054;-48
2022/06/29 01:31:28;;;;;;;4.38;2.60;;;;;;;-147.27;100.00;65176.34;4979204;28;20050;-51
2022/06/29 01:33:53;;;;;;;8.82;3.20;;;;;;;-147.27;100.00;65176.34;4976508;28;20103;-50
2022/06/29 01:36:19;;;;;;;10.40;3.67;;;;;;;-147.27;100.00;65176.34;4978169;28;20039;-53
2022/06/29 01:38:44;;;;;;;7.68;3.50;;;;;;;-147.27;100.00;65176.34;4972966;28;20035;-49
2022/06/29 01:41:11;;;;;;;8.02;3.22;;;;;;;-147.27;100.00;65176.34;4992471;28;20023;-48
2022/06/29 01:43:40;;;;;;;8.10;3.10;;;;;;;-147.27;100.00;65176.34;4978830;28;20037;-47
2022/06/29 01:46:06;;;;;;;6.83;3.10;;;;;;;-147.27;100.00;65176.34;4978612;28;20046;-49
2022/06/29 01:48:33;;;;;;;6.30;2.80;;;;;;;-147.27;100.00;65176.34;4978625;28;20038;-46
2022/06/29 01:50:58;;;;;;;6.43;2.80;;;;;;;-147.27;100.00;65176.34;4982810;28;20091;-53
2022/06/29 01:53:25;;;;;;;5.95;3.28;;;;;;;-147.27;100.00;65176.34;4981671;28;20054;-48
2022/06/29 01:55:50;;;;;;;7.07;3.33;;;;;;;-147.27;100.00;65176.34;4978052;28;20035;-52
2022/06/29 01:58:16;;;;;;;5.03;2.77;;;;;;;-147.27;100.00;65176.34;4979241;28;20035;-52
2022/06/29 02:00:43;;;;;;;;;;;;;;;-147.27;100.00;65176.34;4982719;28;20043;-51
2022/06/29 02:03:08;;;;;;;5.77;3.03;;;;;;;-147.27;100.00;65176.34;4980862;28;19910;-46
2022/06/29 02:05:34;;;;;;;;;;;;;;;-147.27;100.00;65176.34;4989495;28;20262;-52
2022/06/29 02:08:00;;;;;;;5.03;3.17;;;;;;;-147.27;100.00;65176.34;4977255;28;19925;-50
2022/06/29 02:10:25;;;;;;;6.00;3.15;;;;;;;-147.27;100.00;65176.34;4980683;28;20043;-50
2022/06/29 02:12:51;;;;;;;10.02;4.45;;;;;;;-147.27;100.00;65176.34;4978099;28;20035;-48
2022/06/29 02:15:16;;;;;;;8.90;3.40;;;;;;;-147.27;100.00;65176.34;4979579;28;20058;-50
2022/06/29 02:17:42;;;;;;;8.63;3.45;;;;;;;-147.27;100.00;65176.34;4981788;28;20077;-48
2022/06/29 02:20:08;;;;;;;7.85;3.80;;;;;;;-147.27;100.00;65176.34;4975488;28;20035;-49
2022/06/29 02:22:34;;;;;;;8.35;4.13;;;;;;;-147.27;100.00;65176.34;4977350;28;20039;-51
2022/06/29 02:25:00;;;;;;;5.68;3.72;;;;;;;-147.27;100.00;65176.34;4977935;28;20057;-53
2022/06/29 02:27:25;;;;;;;8.48;4.03;;;;;;;-147.27;100.00;65176.34;4975766;28;20040;-48
2022/06/29 02:29:51;;;;;;;9.32;3.58;;;;;;;-147.27;100.00;65176.34;4980925;28;20039;-47
2022/06/29 02:35:02;;;;;;;7.83;3.70;;;;;;;-147.27;100.00;65176.34;4978442;28;20371;-48
2022/06/29 02:37:28;;;;;;;6.75;3.97;;;;;;;-147.27;100.00;65176.34;4980623;28;20273;-53
2022/06/29 02:39:54;;;;;;;7.53;4.28;;;;;;;-147.27;100.00;65176.34;4979685;28;20094;-50
2022/06/29 02:42:19;;;;;;;6.57;3.33;;;;;;;-147.27;100.00;65176.34;4977845;28;20077;-51
2022/06/29 02:44:45;;;;;;;7.63;3.80;;;;;;;-147.27;100.00;65176.34;4979886;28;20061;-51
2022/06/29 02:47:11;;;;;;;10.80;3.90;;;;;;;-147.27;100.00;65176.34;4981574;28;20027;-49
2022/06/29 02:49:37;;;;;;;6.43;4.22;;;;;;;-147.27;100.00;65176.34;4981776;28;20045;-52
2022/06/29 02:52:03;;;;;;;5.10;3.95;;;;;;;-147.27;100.00;65176.34;4979438;28;20031;-50
2022/06/29 02:54:28;;;;;;;11.43;4.50;;;;;;;-147.27;100.00;65176.34;4978923;28;20081;-50
2022/06/29 02:56:54;;;;;;;8.07;3.88;;;;;;;-147.27;100.00;65176.34;4980593;28;20073;-49
2022/06/29 02:59:20;;;;;;;8.17;4.20;;;;;;;-147.27;100.00;65176.34;4980525;28;20057;-50
2022/06/29 03:01:46;;;;;;;7.37;4.13;;;;;;;-147.27;100.00;65176.34;4978841;28;20031;-51
2022/06/29 03:04:12;;;;;;;7.43;4.30;;;;;;;-147.27;100.00;65176.34;4978799;28;20285;-50
2022/06/29 03:06:38;;;;;;;8.37;4.60;;;;;;;-147.27;100.00;65176.34;4978742;28;20086;-50
2022/06/29 03:09:04;;;;;;;5.90;3.80;;;;;;;-147.27;100.00;65176.34;4976801;28;20312;-47
2022/06/29 03:11:29;;;;;;;7.95;4.65;;;;;;;-147.27;100.00;65176.34;4980253;28;20285;-47
2022/06/29 03:13:54;;;;;;;8.73;4.55;;;;;;;-147.27;100.00;65176.34;4976849;28;20066;-47
2022/06/29 03:16:20;;;;;;;6.63;4.40;;;;;;;-147.27;100.00;65176.34;4976815;28;20035;-47
2022/06/29 03:18:45;;;;;;;6.88;4.50;;;;;;;-147.27;100.00;65176.34;4976874;28;20102;-52
2022/06/29 03:21:11;;;;;;;7.72;4.97;;;;;;;-147.27;100.00;65176.34;4974608;28;20035;-49
2022/06/29 03:23:37;;;;;;;9.37;5.20;;;;;;;-147.27;100.00;65176.34;4976629;28;20135;-52
2022/06/29 03:26:03;;;;;;;;;;;;;;;-147.27;100.00;65176.34;4979833;28;20265;-52
2022/06/29 03:28:28;;;;;;;12.73;7.37;;;;;;;-147.27;100.00;65176.34;4987580;28;19925;-52
2022/06/29 03:30:54;;;;;;;10.43;5.93;;;;;;;-147.27;100.00;65176.34;4978862;28;20062;-46
2022/06/29 03:33:21;;;;;;;10.40;6.68;;;;;;;-147.27;100.00;65176.34;4977209;28;20062;-48
2022/06/29 03:35:48;;;;;;;35.50;18.83;;;;;;;-147.27;100.00;65176.34;4977904;28;20035;-52
2022/06/29 03:38:13;;;;;;;54.47;31.40;;;;;;;-147.27;100.00;65176.34;4980736;28;20319;-51
2022/06/29 03:40:39;;;;;;;17.77;10.88;;;;;;;-147.27;100.00;65176.34;4978832;28;20474;-53
2022/06/29 03:43:04;;;;;;;25.80;14.23;;;;;;;-147.27;100.00;65176.34;4977214;28;20042;-52
2022/06/29 03:45:30;;;;;;;37.73;20.77;;;;;;;-147.27;100.00;65176.34;4978984;28;20058;-54
2022/06/29 03:47:55;;;;;;;38.95;21.60;;;;;;;-147.27;100.00;65176.34;4975755;28;20043;-49
2022/06/29 03:50:21;;;;;;;56.80;29.05;;;;;;;-147.27;100.00;65176.34;4977285;28;20031;-53
2022/06/29 03:52:46;;;;;;;20.33;9.70;;;;;;;-147.27;100.00;65176.34;4976789;28;20051;-49
2022/06/29 03:55:11;;;;;;;63.13;34.90;;;;;;;-147.27;100.00;65176.34;4981330;28;20031;-47
2022/06/29 03:57:37;;;;;;;16.50;8.65;;;;;;;-147.27;100.00;65176.34;4975207;28;20069;-50
2022/06/29 04:00:04;;;;;;;35.70;18.37;;;;;;;-147.27;100.00;65176.34;4980556;28;20035;-50
2022/06/29 04:02:38;;;;;;;17.10;8.30;;;;;;;-147.27;100.00;65176.34;4976980;28;20272;-53
2022/06/29 04:05:04;;;;;;;10.15;6.22;;;;;;;-147.27;100.00;65176.34;4979897;28;20698;-50
2022/06/29 04:07:30;;;;;;;;;;;;;;;-147.27;100.00;65176.34;4979026;28;20035;-50
2022/06/29 04:09:59;;;;;;;7.60;5.40;;;;;;;-147.27;100.00;65176.34;4978015;28;19925;-49
2022/06/29 04:12:30;;;;;;;11.00;6.60;;;;;;;-147.27;100.00;65176.34;4976887;28;20058;-53
2022/06/29 04:14:56;;;;;;;11.80;7.17;;;;;;;-147.27;100.00;65176.34;4976249;28;20272;-52
2022/06/29 04:17:22;;;;;;;16.17;8.87;;;;;;;-147.27;100.00;65176.34;4975200;28;20269;-53
2022/06/29 04:19:48;;;;;;;8.80;5.43;;;;;;;-147.27;100.00;65176.34;4973525;28;20040;-50
2022/06/29 04:22:14;;;;;;;10.32;5.28;;;;;;;-147.27;100.00;65176.34;4974277;28;20086;-47
2022/06/29 04:24:39;;;;;;;10.80;4.90;;;;;;;-147.27;100.00;65176.34;4975399;28;20034;-51
2022/06/29 04:27:05;;;;;;;9.52;5.43;;;;;;;-147.27;100.00;65176.34;4976730;28;20035;-53
2022/06/29 04:29:30;;;;;;;10.73;5.32;;;;;;;-147.27;100.00;65176.34;4979821;28;20057;-53
2022/06/29 04:31:56;;;;;;;8.02;5.88;;;;;;;-147.27;100.00;65176.34;4978408;28;20038;-54
2022/06/29 04:34:21;;;;;;;7.55;5.57;;;;;;;-147.27;100.00;65176.34;4976183;28;20062;-54
2022/06/29 04:36:47;;;;;;;11.20;6.00;;;;;;;-147.27;100.00;65176.34;4977323;28;20059;-51
2022/06/29 04:39:12;;;;;;;7.60;5.63;;;;;;;-147.27;100.00;65176.34;4979202;28;20039;-50
2022/06/29 04:41:38;;;;;;;6.80;4.95;;;;;;;-147.27;100.00;65176.34;4976710;28;20112;-51
2022/06/29 04:44:04;;;;;;;7.83;5.30;;;;;;;-147.27;100.00;65176.34;4980361;28;20054;-52
2022/06/29 04:46:29;;;;;;;11.35;5.78;;;;;;;-147.27;100.00;65176.34;4969964;28;20273;-52
2022/06/29 04:48:58;;;;;;;9.13;5.75;;;;;;;-147.27;100.00;65176.34;4968494;28;20054;-51
2022/06/29 04:51:27;;;;;;;11.93;6.17;;;;;;;-147.27;100.00;65176.34;4968310;28;20038;-49
2022/06/29 04:53:56;;;;;;;8.57;5.37;;;;;;;-147.27;100.00;65176.34;4969773;28;20364;-51
2022/06/29 04:56:24;;;;;;;10.23;5.33;;;;;;;-147.27;100.00;65176.34;4970450;28;20268;-52
2022/06/29 04:58:51;;;;;;;11.00;5.47;;;;;;;-147.27;100.00;65176.34;4979178;28;20113;-52
2022/06/29 05:01:18;;;;;;;10.77;5.37;;;;;;;-147.27;100.00;65176.34;4976465;28;20289;-50
2022/06/29 05:03:44;;;;;;;7.47;5.33;;;;;;;-147.27;100.00;65176.34;4971931;28;20039;-53
2022/06/29 05:06:10;;;;;;;8.37;5.10;;;;;;;-147.27;100.00;65176.34;4974669;28;20031;-51
2022/06/29 05:08:35;;;;;;;10.63;5.40;;;;;;;-147.27;100.00;65176.34;4974414;28;20038;-52
2022/06/29 05:11:01;;;;;;;6.95;4.75;;;;;;;-147.27;100.00;65176.34;4975575;28;20039;-49
2022/06/29 05:13:27;;;;;;;9.43;5.10;;;;;;;-147.27;100.00;65176.34;4977698;28;20043;-51
2022/06/29 05:15:52;;;;;;;8.55;5.45;;;;;;;-147.27;100.00;65176.34;4978886;28;20046;-52
2022/06/29 05:18:18;;;;;;;6.88;5.15;;;;;;;-147.27;100.00;65176.34;4973965;28;20027;-50
2022/06/29 05:20:43;;;;;;;8.48;5.00;;;;;;;-147.27;100.00;65176.34;4982928;28;20023;-51
2022/06/29 05:23:12;;;;;;;5.40;4.57;;;;;;;-147.27;100.00;65176.34;4977720;28;20061;-52
2022/06/29 05:25:39;;;;;;;9.83;6.40;;;;;;;-147.27;100.00;65176.34;4980802;28;20035;-47
2022/06/29 05:28:05;;;;;;;11.33;5.57;;;;;;;-147.27;100.00;65176.34;4984757;28;20112;-54
2022/06/29 05:30:31;;;;;;;9.20;5.15;;;;;;;-147.27;100.00;65176.34;4974364;28;20032;-48
2022/06/29 05:32:56;;;;;;;12.68;6.72;;;;;;;-147.27;100.00;65176.34;4976636;28;20115;-51
2022/06/29 05:35:22;;;;;;;18.55;10.15;;;;;;;-147.27;100.00;65176.34;4980002;28;20042;-51
2022/06/29 05:37:48;;;;;;;12.95;5.80;;;;;;;-147.27;100.00;65176.34;4981756;28;20054;-55
2022/06/29 05:40:13;;;;;;;17.50;10.20;;;;;;;-147.27;100.00;65176.34;4964314;28;20035;-52
2022/06/29 05:42:39;;;;;;;16.73;5.78;;;;;;;-147.27;100.00;65176.34;4991829;28;20339;-50
2022/06/29 05:45:05;;;;;;;17.38;8.80;;;;;;;-147.27;100.00;65176.34;4983510;28;20065;-50
2022/06/29 05:47:30;;;;;;;12.15;7.55;;;;;;;-147.27;100.00;65176.34;4976189;28;20055;-49
2022/06/29 05:50:00;;;;;;;18.48;10.10;;;;;;;-147.27;100.00;65176.34;4977922;28;20028;-49
2022/06/29 05:52:26;;;;;;;10.77;5.70;;;;;;;-147.27;100.00;65176.34;4973943;28;20115;-52
2022/06/29 05:54:52;;;;;;;9.80;5.53;;;;;;;-147.27;100.00;65176.34;4975511;28;20035;-53
2022/06/29 05:57:19;;;;;;;23.92;10.98;;;;;;;-147.27;100.00;65176.34;4977577;28;20075;-52
2022/06/29 05:59:47;;;;;;;12.27;7.13;;;;;;;-147.27;100.00;65176.34;4982178;28;20051;-53
2022/06/29 06:02:12;;;;;;;14.73;6.77;;;;;;;-147.27;100.00;65176.34;4981564;28;20053;-52
2022/06/29 06:04:39;;;;;;;16.60;6.67;;;;;;;-147.27;100.00;65176.34;4977896;28;20118;-54
2022/06/29 06:07:04;;;;;;;10.63;6.15;;;;;;;-147.27;100.00;65176.34;4976875;28;20039;-51
2022/06/29 06:09:32;;;;;;;13.52;7.03;;;;;;;-147.27;100.00;65176.34;4977406;28;20065;-47
2022/06/29 06:11:58;;;;;;;11.80;6.43;;;;;;;-147.27;100.00;65176.34;4977545;28;20099;-47
2022/06/29 06:14:24;;;;;;;13.70;6.67;;;;;;;-147.27;100.00;65176.34;4976363;28;20039;-49
2022/06/29 06:16:50;;;;;;;12.23;6.22;;;;;;;-147.27;100.00;65176.34;4977584;28;20046;-50
2022/06/29 06:19:16;;;;;;;13.97;6.93;;;;;;;-147.27;100.00;65176.34;4977277;28;20031;-53
2022/06/29 06:21:41;;;;;;;14.80;7.40;;;;;;;-147.27;100.00;65176.34;4974143;28;20031;-52
2022/06/29 06:24:07;;;;;;;17.02;8.05;;;;;;;-147.27;100.00;65176.34;4975560;28;20031;-50
2022/06/29 06:26:32;;;;;;;14.00;6.78;;;;;;;-147.27;100.00;65176.34;4975327;28;20043;-48
2022/06/29 06:28:58;;;;;;;10.07;7.45;;;;;;;-147.27;100.00;65176.34;4975145;28;20054;-49
2022/06/29 06:31:24;;;;;;;;;;;;;;;-147.27;100.00;65176.34;4973881;28;20043;-50
2022/06/29 06:33:50;;;;;;;12.30;7.03;;;;;;;-147.27;100.00;65176.34;4973605;28;19995;-49
2022/06/29 06:36:16;;;;;;;10.43;6.25;;;;;;;-147.27;100.00;65176.34;4974988;28;20031;-50
2022/06/29 06:38:41;;;;;;;8.18;5.53;;;;;;;-147.27;100.00;65176.34;4975639;28;20050;-50
2022/06/29 06:41:22;;;;;;;13.00;6.95;;;;;;;-147.27;100.00;65176.34;4975714;28;20031;-50
2022/06/29 06:43:53;;;;;;;9.60;6.40;;;;;;;-147.27;100.00;65176.34;4977365;28;20039;-51
2022/06/29 06:46:19;;;;;;;9.47;6.00;;;;;;;-147.27;100.00;65176.34;4978569;28;20035;-49
2022/06/29 06:48:45;;;;;;;7.70;5.88;;;;;;;-147.27;100.00;65176.34;4977547;28;20075;-51
2022/06/29 06:51:11;;;;;;;10.98;5.65;;;;;;;-147.27;100.00;65176.34;4978001;28;20058;-50
2022/06/29 06:53:38;;;;;;;12.10;6.17;;;;;;;-147.27;100.00;65176.34;4976021;28;20050;-48
2022/06/29 06:56:04;;;;;;;;;;;;;;;-147.27;100.00;65176.34;4976395;28;20035;-51
2022/06/29 06:58:30;;;;;;;19.67;7.20;;;;;;;-147.27;100.00;65176.34;4981664;28;19974;-51
2022/06/29 07:00:55;;;;;;;11.73;6.22;;;;;;;-147.27;100.00;65176.34;4983083;28;20035;-50
2022/06/29 07:03:21;;;;;;;12.80;6.07;;;;;;;-147.27;100.00;65176.34;4975514;28;20065;-51
2022/06/29 07:05:46;;;;;;;11.88;6.20;;;;;;;-147.27;100.00;65176.34;4979328;28;20096;-49
2022/06/29 07:08:11;;;;;;;16.23;7.38;;;;;;;-147.27;100.00;65176.34;4977686;28;20042;-49
2022/06/29 07:10:37;;;;;;;13.63;7.18;;;;;;;-147.27;100.00;65176.34;4979141;28;20073;-55
2022/06/29 07:13:03;;;;;;;14.75;6.20;;;;;;;-147.27;100.00;65176.34;4975807;28;20062;-51
2022/06/29 07:15:28;;;;;;;14.32;6.60;;;;;;;-147.27;100.00;65176.34;4974674;28;20042;-50
2022/06/29 07:17:54;;;;;;;8.40;5.97;;;;;;;-147.27;100.00;65176.34;4977336;28;20059;-50
2022/06/29 07:20:20;;;;;;;;;;;;;;;-147.27;100.00;65176.34;4977928;28;20093;-52
2022/06/29 07:22:46;;;;;;;12.50;5.90;;;;;;;-147.27;100.00;65176.34;4973354;28;19914;-52
2022/06/29 07:25:11;;;;;;;12.05;6.55;;;;;;;-147.27;100.00;65176.34;4975943;28;20062;-53
2022/06/29 07:27:37;;;;;;;;;;;;;;;-147.27;100.00;65176.34;5009843;28;20041;-49
2022/06/29 07:30:04;;;;;;;12.40;6.20;;;;;;;-147.27;100.00;65176.34;4976393;28;19921;-51
2022/06/29 07:32:30;;;;;;;10.17;5.73;;;;;;;-147.27;100.00;65176.34;4976378;28;20047;-48
2022/06/29 07:34:56;;;;;;;15.13;5.85;;;;;;;-147.27;100.00;65176.34;4978411;28;20058;-51
2022/06/29 07:37:21;;;;;;;7.97;5.15;;;;;;;-147.27;100.00;65176.34;4976420;28;20039;-51
2022/06/29 07:39:47;;;;;;;8.63;5.65;;;;;;;-147.27;100.00;65176.34;4978690;28;20053;-50
2022/06/29 07:42:12;;;;;;;13.15;6.20;;;;;;;-147.27;100.00;65176.34;4983205;28;20043;-49
2022/06/29 07:44:38;;;;;;;9.07;5.75;;;;;;;-147.27;100.00;65176.34;4976017;28;20066;-52
2022/06/29 07:47:04;;;;;;;8.45;5.45;;;;;;;-147.27;100.00;65176.34;4983027;28;20050;-50
2022/06/29 07:49:30;;;;;;;8.43;5.20;;;;;;;-147.27;100.00;65176.34;4980095;28;20043;-52
2022/06/29 07:51:56;;;;;;;12.60;5.10;;;;;;;-147.27;100.00;65176.34;4983701;28;20039;-54
2022/06/29 07:54:22;;;;;;;12.80;5.50;;;;;;;-147.27;100.00;65176.34;4982263;28;20061;-50
2022/06/29 07:56:48;;;;;;;15.20;5.80;;;;;;;-147.27;100.00;65176.34;4961716;28;20031;-51
2022/06/29 07:59:13;;;;;;;12.88;6.07;;;;;;;-147.27;100.00;65176.34;4978691;28;20060;-50
2022/06/29 08:01:39;;;;;;;10.23;5.15;;;;;;;-147.27;100.00;65176.34;4978733;28;20054;-49
2022/06/29 08:04:04;;;;;;;12.15;6.72;;;;;;;-147.27;100.00;65176.34;4978996;28;20046;-52
2022/06/29 08:06:30;;;;;;;11.38;5.72;;;;;;;-147.27;100.00;65176.34;4981255;28;20035;-51
2022/06/29 08:08:55;;;;;;;9.73;6.13;;;;;;;-147.27;100.00;65176.34;4975253;28;20042;-52
2022/06/29 08:11:21;;;;;;;13.57;5.82;;;;;;;-147.27;100.00;65176.34;4978114;28;20060;-52
2022/06/29 08:13:46;;;;;;;;;;;;;;;-147.27;100.00;65176.34;4960721;28;20055;-51
2022/06/29 08:16:12;;;;;;;8.70;5.60;;;;;;;-147.27;100.00;65176.34;4974518;28;19918;-47
2022/06/29 08:18:37;;;;;;;;;;;;;;;-147.27;100.00;65176.34;4976142;28;20032;-49
2022/06/29 08:21:03;;;;;;;13.10;6.47;;;;;;;-147.27;100.00;65176.34;4977832;28;19989;-49
2022/06/29 08:23:30;;;;;;;11.67;6.03;;;;;;;-147.27;100.00;65176.34;4977095;28;20031;-50
2022/06/29 08:25:56;;;;;;;10.37;5.40;;;;;;;-147.27;100.00;65176.34;4977190;28;20041;-50
2022/06/29 08:28:23;;;;;;;10.90;5.67;;;;;;;-147.27;100.00;65176.34;4967031;28;20042;-50
2022/06/29 08:30:49;;;;;;;10.53;5.93;;;;;;;-147.27;100.00;65176.34;4977400;28;20039;-52
2022/06/29 08:33:15;;;;;;;;;;;;;;;-147.27;100.00;65176.34;4978398;28;20070;-48
2022/06/29 08:35:41;;;;;;;12.87;4.83;;;;;;;-147.27;100.00;65176.34;4973897;28;19915;-51
2022/06/29 08:38:07;;;;;;;8.90;4.30;;;;;;;-147.27;100.00;65176.34;4976061;28;20061;-52
2022/06/29 08:40:47;;;;;;;7.53;3.63;;;;;;;-147.27;100.00;65176.34;4977834;28;20033;-53
2022/06/29 08:43:14;;;;;;;6.00;2.90;;;;;;;-147.27;100.00;65176.34;4973699;28;20034;-47
2022/06/29 08:45:49;;;;;;;6.13;3.07;;;;;;;-147.27;100.00;65176.34;4990699;28;20062;-53
2022/06/29 08:48:16;;;;;;;8.83;3.07;;;;;;;-147.27;100.00;65176.34;4974894;28;20046;-50
2022/06/29 08:50:44;;;;;;;4.27;2.20;;;;;;;-147.27;100.00;65176.34;4971741;28;20122;-51
2022/06/29 08:53:14;;;;;;;3.73;2.27;;;;;;;-147.27;100.00;65176.34;4975534;28;20033;-53
2022/06/29 08:55:48;;;;;;;11.83;3.47;;;;;;;-147.27;100.00;65176.34;4979785;28;20050;-53
2022/06/29 08:58:18;;;;;;;7.17;2.73;;;;;;;-147.27;100.00;65176.34;4981467;28;20038;-51
2022/06/29 09:00:46;;;;;;;5.67;2.90;;;;;;;-147.27;100.00;65176.34;4976598;28;20042;-55
2022/06/29 09:03:11;;;;;;;6.77;2.90;;;;;;;-147.27;100.00;65176.34;4980580;28;20062;-53
2022/06/29 09:05:37;;;;;;;;;;;;;;;-147.27;100.00;65176.34;4978488;28;20050;-54
2022/06/29 09:08:03;;;;;;;6.10;3.40;;;;;;;-147.27;100.00;65176.34;4982378;28;19940;-53
2022/06/29 09:10:29;;;;;;;;;;;;;;;-147.27;100.00;65176.34;4976808;28;20034;-55
2022/06/29 09:12:57;;;;;;;9.10;3.53;;;;;;;-147.27;100.00;65176.34;4982103;28;19928;-53
2022/06/29 09:15:32;;;;;;;7.33;4.30;;;;;;;-147.27;100.00;65176.34;4980205;28;20039;-54
2022/06/29 09:17:58;;;;;;;7.60;3.77;;;;;;;-147.27;100.00;65176.34;4978985;28;20039;-50
2022/06/29 09:20:23;;;;;;;7.07;3.40;;;;;;;-147.27;100.00;65176.34;4982168;28;20039;-51
2022/06/29 09:22:53;;;;;;;;;;;;;;;-147.27;100.00;65176.34;4977077;28;20116;-53
2022/06/29 09:25:24;;;;;;;7.03;3.13;;;;;;;-147.27;100.00;65176.34;4981666;28;19922;-51
2022/06/29 09:27:49;;;;;;;6.27;3.60;;;;;;;-147.27;100.00;65176.34;4981961;28;20117;-54
2022/06/29 09:30:35;;;;;;;9.33;3.47;;;;;;;-147.27;100.00;65176.34;4981714;28;20035;-50
2022/06/29 09:33:05;;;;;;;6.57;3.50;;;;;;;-147.27;100.00;65176.34;4979068;28;20055;-54
2022/06/29 09:35:32;;;;;;;6.33;3.23;;;;;;;-147.27;100.00;65176.34;4984314;28;20023;-51
2022/06/29 09:38:17;;;;;;;7.72;3.50;;;;;;;-147.27;100.00;65176.34;4980599;28;20031;-51
2022/06/29 09:41:06;;;;;;;6.03;3.80;;;;;;;-147.27;100.00;65176.34;4981604;28;20039;-53
2022/06/29 09:43:43;;;;;;;10.05;4.28;;;;;;;-147.27;100.00;65176.34;4974832;28;20057;-53
2022/06/29 09:46:11;;;;;;;8.27;4.00;;;;;;;-147.27;100.00;65176.34;4980160;28;20045;-51
2022/06/29 09:48:38;;;;;;;8.55;4.25;;;;;;;-147.27;100.00;65176.34;4976026;28;20038;-55
2022/06/29 09:51:30;;;;;;;11.50;4.45;;;;;;;-147.27;100.00;65176.34;4977966;28;20389;-51
2022/06/29 09:54:01;;;;;;;;;;;;;;;-147.27;100.00;65176.34;4978106;28;20036;-53
2022/06/29 09:56:29;;;;;;;11.00;3.72;;;;;;;-147.27;100.00;65176.34;4975031;28;19914;-55
2022/06/29 09:58:58;;;;;;;8.00;3.50;;;;;;;-147.27;100.00;65176.34;4981410;28;20062;-50
2022/06/29 10:04:11;;;;;;;12.07;2.80;;;;;;;-147.27;100.00;65176.34;4976900;28;20027;-50
2022/06/29 10:06:37;;;;;;;7.97;2.40;;;;;;;-147.27;100.00;65176.34;4977106;28;20051;-51
2022/06/29 10:09:03;;;;;;;3.90;2.75;;;;;;;-147.27;100.00;65176.34;4979626;28;20050;-49
2022/06/29 10:14:43;;;;;;;7.22;3.03;;;;;;;-147.27;100.00;65176.34;4972271;28;20039;-51
2022/06/29 10:17:36;;;;;;;7.25;2.58;;;;;;;-147.27;100.00;65176.34;4952069;28;20070;-55
2022/06/29 10:20:17;;;;;;;5.15;2.47;;;;;;;-147.27;100.00;65176.34;4979729;28;20062;-53
2022/06/29 10:22:43;;;;;;;9.30;2.40;;;;;;;-147.27;100.00;65176.34;4986911;28;20034;-54
2022/06/29 10:25:12;;;;;;;3.90;2.50;;;;;;;-147.27;100.00;65176.34;4959109;28;20073;-50
2022/06/29 10:27:38;;;;;;;5.45;2.40;;;;;;;-147.27;100.00;65176.34;4975325;28;20043;-49
2022/06/29 10:30:24;;;;;;;8.73;2.63;;;;;;;-147.27;100.00;65176.34;4966319;28;20039;-49
2022/06/29 10:32:50;;;;;;;9.23;3.03;;;;;;;-147.27;100.00;65176.34;4972115;28;20051;-53
2022/06/29 10:35:16;;;;;;;5.80;2.55;;;;;;;-147.27;100.00;65176.34;4977582;28;20073;-51
2022/06/29 10:37:54;;;;;;;5.90;3.08;;;;;;;-147.27;100.00;65176.34;4976686;28;20039;-53
2022/06/29 10:40:24;;;;;;;4.63;2.60;;;;;;;-147.27;100.00;65176.34;4978520;28;20046;-54
2022/06/29 10:43:09;;;;;;;4.40;2.03;;;;;;;-147.27;100.00;65176.34;4976806;28;20114;-53
2022/06/29 10:45:41;;;;;;;4.80;2.03;;;;;;;-147.27;100.00;65176.34;4977371;28;20055;-48
2022/06/29 10:48:07;;;;;;;6.25;2.45;;;;;;;-147.27;100.00;65176.34;4977465;28;20027;-49
2022/06/29 10:50:34;;;;;;;4.32;1.80;;;;;;;-147.27;100.00;65176.34;4977639;28;20046;-50
2022/06/29 10:53:03;;;;;;;3.88;1.70;;;;;;;-147.27;100.00;65176.34;4976403;28;20123;-53
2022/06/29 10:55:29;;;;;;;4.90;1.50;;;;;;;-147.27;100.00;65176.34;4975045;28;20506;-49
2022/06/29 10:57:57;;;;;;;4.40;1.50;;;;;;;-147.27;100.00;65176.34;4976912;28;20091;-53
2022/06/29 11:00:25;;;;;;;4.20;1.45;;;;;;;-147.27;100.00;65176.34;4993653;28;20115;-51
2022/06/29 11:02:51;;;;;;;7.70;1.80;;;;;;;-147.27;100.00;65176.34;4982510;28;20030;-50
2022/06/29 11:05:16;;;;;;;7.13;1.80;;;;;;;-147.27;100.00;65176.34;4976452;28;20047;-54
2022/06/29 11:13:24;;;;;;;1.63;1.10;;;;;;;-147.27;100.00;65176.34;4977875;28;19918;-53
2022/06/29 11:15:51;;;;;;;1.48;1.13;;;;;;;-147.27;100.00;65176.34;4976658;28;20035;-51
2022/06/29 11:18:19;;;;;;;2.92;1.00;;;;;;;-147.27;100.00;65176.34;4977184;28;20046;-51
2022/06/29 11:20:51;;;;;;;2.78;1.35;;;;;;;-147.27;100.00;65176.34;5000254;28;20031;-55
2022/06/29 11:23:19;;;;;;;6.53;1.40;;;;;;;-147.27;100.00;65176.34;4975555;28;20027;-54